カンゲルルススアーク の空港の天気 - METARとTAF

カンゲルルススアーク空港 ( BGSF / SFJ ) - グリーンランド カンゲルルススアーク
飛行場実況気象(Metar)
観測時間01/19 22:50 WGT (01/20 01:50 UTC)
風向・風速東北東 2m/s
視程-
天気現象弱い雪
少しの雲 雲底高度 1040m
全天の8割程度の雲 雲底高度 1220m
全天を覆う雲 雲底高度 1430m
気温-15℃
湿度85%
気圧996hPa
METARBGSF 200150Z AUTO 07004KT 4100NDV -SN FEW034/// BKN040/// OVC047/// M15/M17 Q0996
過去の天気等 Google飛行場航空写真 Wunderground天気予報

過去48時間のMETAR

飛行場予報(TAF)
発表時間: 1/19 19:49 WGT (1/19 22:49 UTC)
予報対象時間: 19日21時 WGT ~ 20日20時 WGT
風向・風速東北東 3m/s
視程10km以上
全天の4割程度の雲 雲底高度 550m
全天の8割程度の雲 雲底高度 1220m
19日21時 WGT ~ 20日7時 WGT に一時的に
視程2000m
天気現象弱い雪
全天を覆う雲 鉛直視程 240m
20日7時 WGT ~ 20日20時 WGT に一時的に
視程5000m
全天の8割程度の雲 雲底高度 550m
TAF BGSF 192249Z 2000/2023 06006KT 9999 SCT018 BKN040
TEMPO 2000/2010 2000 -SN VV008
TEMPO 2010/2023 5000 BKN018